Dara'a, Syria

11:20 PM EET on December 19, 2014 (GMT +0200)
Marka International | Change Station
CLOSE
Current Station
Airport
Location: Amman,
Elevation: 2556 ft
Nearby Weather Stations

Elev 2556 ft 31.97 °N, 35.99 °E | Updated 20 minutes ago

Haze
Haze
54 °F
Feels Like 54 °F
N
0
Wind Variable Wind from North

Today
High -- | Low -- °F
--% Chance of Precip.
Yesterday
High -- | Low -- °F
Precip. -- in
6:32 AM 4:32 PM
Waning Crescent, 6% visible
Pressure 30.15 in
Visibility 2.5 miles
Clouds
Dew Point 46 °F
Humidity 77%
Rainfall 0.00 in
Snow Depth Not available.
UV Not available.
Pollen Not available.
Air Quality Not available.
Flu Activity Not available.
METAR OJAM 192100Z 00000KT 4000 HZ NSC 12/08 Q1021 NOSIG

More Conditions Fewer Conditions

Pressure 30.15 in
Visibility 2.5 miles
Clouds
Dew Point 46 °F
Humidity 77%
Rainfall 0.00 in
Snow Depth Not available.
UV Not available.
Pollen Not available.
Air Quality Not available.
Flu Activity Not available.
METAR OJAM 192100Z 00000KT 4000 HZ NSC 12/08 Q1021 NOSIG

More Conditions Fewer Conditions

10-Day Weather Forecast

Almanac

Astronomy

Dec. 19, 2014 Rise Set
Actual Time
Civil Twilight
Nautical Twilight
Astronomical Twilight
Moon
Length of Visible Light
Length of Day
Tomorrow will be .
, % of the Moon is Illuminated

Today's Extremes

Country Highs Country Lows

Community

WunderPhotos

Upload Photos

1,779,057 photos uploaded!

WunderBlogs® & News

Nearby

Air Quality

  Air Quality AQ Index Pollutant
Not available.

Snow Depth

Station Depth Elevation

Earthquake Activity

City Distance Mag. Time & Date
Minimum magnitude displayed is 2.5.

Coastal Water Temperatures

Place Temperature

Nearby Weather Stations